createdAt,value
2022-08-02T00:00:12.679Z,17.70
2022-08-02T00:02:39.500Z,17.60
2022-08-02T00:05:07.359Z,17.70
2022-08-02T00:07:38.982Z,17.70
2022-08-02T00:10:10.182Z,17.70
2022-08-02T00:12:37.635Z,17.70
2022-08-02T00:15:06.775Z,17.70
2022-08-02T00:17:33.530Z,17.70
2022-08-02T00:20:00.254Z,17.70
2022-08-02T00:22:27.047Z,17.50
2022-08-02T00:24:54.018Z,17.60
2022-08-02T00:27:20.814Z,17.70
2022-08-02T00:29:52.521Z,17.80
2022-08-02T00:32:22.718Z,17.70
2022-08-02T00:34:49.758Z,17.70
2022-08-02T00:37:16.549Z,17.50
2022-08-02T00:39:43.925Z,17.50
2022-08-02T00:42:13.807Z,17.60
2022-08-02T00:44:40.896Z,17.60
2022-08-02T00:47:07.684Z,17.50
2022-08-02T00:49:34.490Z,17.40
2022-08-02T00:52:01.423Z,17.30
2022-08-02T00:54:28.218Z,17.30
2022-08-02T00:56:54.978Z,17.40
2022-08-02T00:59:21.798Z,17.30
2022-08-02T01:01:56.279Z,17.40
2022-08-02T01:04:26.804Z,17.40
2022-08-02T01:07:00.279Z,17.50
2022-08-02T01:09:27.770Z,17.30
2022-08-02T01:11:54.563Z,17.40
2022-08-02T01:14:24.262Z,17.50
2022-08-02T01:17:02.719Z,17.40
2022-08-02T01:19:49.536Z,17.40
2022-08-02T01:22:58.137Z,17.50
2022-08-02T01:25:25.894Z,17.50
2022-08-02T01:28:28.417Z,17.40
2022-08-02T01:31:02.578Z,17.40
2022-08-02T01:33:38.095Z,17.40
2022-08-02T01:36:07.260Z,17.30
2022-08-02T01:38:40.926Z,17.30
2022-08-02T01:41:10.975Z,17.40
2022-08-02T01:43:40.115Z,17.40
2022-08-02T01:46:08.226Z,17.40
2022-08-02T01:48:35.753Z,17.40
2022-08-02T01:51:03.982Z,17.50
2022-08-02T01:53:31.712Z,17.30
2022-08-02T01:56:00.095Z,17.20
2022-08-02T01:58:30.960Z,17.20
2022-08-02T02:00:59.478Z,17.20
2022-08-02T02:03:28.153Z,17.20
2022-08-02T02:05:57.905Z,17.10
2022-08-02T02:08:32.227Z,17.10
2022-08-02T02:12:11.681Z,17.20
2022-08-02T02:13:48.896Z,17.20
2022-08-02T02:16:16.366Z,17.00
2022-08-02T02:18:45.055Z,17.10
2022-08-02T02:21:13.366Z,17.10
2022-08-02T02:23:40.719Z,16.90
2022-08-02T02:26:11.154Z,16.80
2022-08-02T02:28:39.135Z,16.90
2022-08-02T02:31:14.059Z,16.90
2022-08-02T02:34:05.073Z,17.10
2022-08-02T02:36:34.761Z,17.00
2022-08-02T02:39:04.288Z,16.90
2022-08-02T02:41:40.781Z,16.90
2022-08-02T02:44:11.188Z,17.00
2022-08-02T02:46:38.451Z,16.90
2022-08-02T02:49:05.449Z,17.00
2022-08-02T02:51:33.438Z,17.20
2022-08-02T02:54:31.970Z,17.10
2022-08-02T02:56:48.617Z,17.00
2022-08-02T02:59:16.154Z,17.10
2022-08-02T03:01:55.418Z,17.10
2022-08-02T03:04:26.930Z,17.20
2022-08-02T03:06:53.932Z,17.10
2022-08-02T03:09:21.116Z,17.30
2022-08-02T03:11:48.338Z,17.20
2022-08-02T03:14:15.789Z,17.30
2022-08-02T03:16:50.862Z,17.20
2022-08-02T03:19:18.439Z,17.10
2022-08-02T03:21:46.662Z,17.10
2022-08-02T03:24:14.154Z,17.10
2022-08-02T03:26:41.279Z,17.10
2022-08-02T03:29:10.065Z,17.10
2022-08-02T03:31:41.630Z,17.10
2022-08-02T03:34:08.947Z,17.10
2022-08-02T03:36:37.228Z,17.10
2022-08-02T03:39:05.137Z,16.90
2022-08-02T03:41:33.104Z,16.90
2022-08-02T03:44:00.847Z,16.70
2022-08-02T03:46:27.962Z,16.60
2022-08-02T03:48:55.919Z,16.80
2022-08-02T03:51:23.358Z,16.70
2022-08-02T03:53:50.744Z,16.70
2022-08-02T03:56:17.872Z,16.80
2022-08-02T03:58:49.142Z,16.90
2022-08-02T04:01:16.709Z,16.80
2022-08-02T04:03:43.630Z,16.90
2022-08-02T04:06:10.435Z,16.90
2022-08-02T04:08:38.678Z,17.00
2022-08-02T04:11:25.261Z,16.90
2022-08-02T04:13:54.723Z,16.80
2022-08-02T04:16:38.098Z,16.90
2022-08-02T04:19:07.295Z,17.00
2022-08-02T04:21:50.348Z,17.10
2022-08-02T04:24:25.214Z,17.00
2022-08-02T04:27:06.363Z,16.90
2022-08-02T04:29:35.147Z,17.00
2022-08-02T04:32:03.046Z,17.10
2022-08-02T04:34:30.408Z,17.20
2022-08-02T04:36:58.677Z,17.10
2022-08-02T04:39:26.008Z,17.30
2022-08-02T04:41:57.384Z,17.30
2022-08-02T04:44:24.852Z,17.30
2022-08-02T04:46:52.069Z,17.40
2022-08-02T04:49:18.957Z,17.50
2022-08-02T04:51:45.753Z,17.50
2022-08-02T04:54:12.603Z,17.60
2022-08-02T04:56:39.644Z,17.60
2022-08-02T04:59:07.136Z,17.70
2022-08-02T05:01:35.459Z,18.00
2022-08-02T05:04:02.489Z,18.10
2022-08-02T05:06:29.250Z,18.30
2022-08-02T05:08:56.074Z,18.40
2022-08-02T05:11:34.626Z,18.50
2022-08-02T05:14:04.803Z,18.50
2022-08-02T05:16:32.370Z,18.70
2022-08-02T05:19:01.085Z,18.40
2022-08-02T05:21:28.760Z,18.40
2022-08-02T05:23:55.561Z,18.00
2022-08-02T05:26:22.337Z,18.00
2022-08-02T05:28:49.140Z,18.00
2022-08-02T05:31:15.956Z,18.00
2022-08-02T05:33:43.344Z,18.10
2022-08-02T05:36:10.160Z,17.70
2022-08-02T05:38:37.880Z,17.90
2022-08-02T05:41:05.693Z,17.80
2022-08-02T05:43:32.748Z,17.80
2022-08-02T05:45:59.696Z,17.90
2022-08-02T05:48:31.193Z,18.00
2022-08-02T05:51:11.053Z,18.00
2022-08-02T05:54:02.586Z,18.10
2022-08-02T05:56:36.284Z,18.10
2022-08-02T05:59:08.622Z,18.30
2022-08-02T06:01:40.047Z,18.40
2022-08-02T06:04:11.214Z,18.50
2022-08-02T06:06:43.232Z,18.70
2022-08-02T06:09:15.519Z,18.90
2022-08-02T06:12:01.322Z,19.20
2022-08-02T06:14:33.146Z,19.50
2022-08-02T06:17:03.966Z,19.70
2022-08-02T06:19:46.973Z,19.70
2022-08-02T06:22:42.028Z,19.40
2022-08-02T06:25:47.985Z,19.40
2022-08-02T06:27:55.008Z,19.60
2022-08-02T06:30:22.459Z,19.70
2022-08-02T06:32:52.277Z,19.90
2022-08-02T06:35:19.224Z,19.90
2022-08-02T06:38:01.651Z,19.90
2022-08-02T06:40:48.618Z,19.80
2022-08-02T06:43:38.249Z,20.00
2022-08-02T06:47:07.409Z,20.00
2022-08-02T06:48:54.202Z,20.10
2022-08-02T06:51:21.080Z,20.30
2022-08-02T06:53:48.227Z,20.50
2022-08-02T06:56:15.442Z,20.80
2022-08-02T06:58:42.308Z,20.80
2022-08-02T07:01:09.894Z,21.00
2022-08-02T07:03:37.960Z,21.50
2022-08-02T07:06:06.396Z,24.60
2022-08-02T07:08:33.173Z,29.00
2022-08-02T07:11:01.203Z,31.20
2022-08-02T07:13:28.901Z,32.10
2022-08-02T07:15:56.694Z,32.00
2022-08-02T07:18:24.527Z,31.80
2022-08-02T07:20:51.756Z,33.00
2022-08-02T07:23:18.564Z,32.50
2022-08-02T07:26:03.139Z,32.70
2022-08-02T07:28:31.309Z,33.70
2022-08-02T07:30:58.044Z,34.00
2022-08-02T07:33:37.795Z,33.80
2022-08-02T07:36:06.986Z,34.60
2022-08-02T07:38:37.491Z,34.30
2022-08-02T07:41:04.813Z,33.90
2022-08-02T07:43:31.567Z,34.30
2022-08-02T07:46:00.556Z,34.90
2022-08-02T07:48:28.023Z,35.30
2022-08-02T07:50:54.865Z,36.40
2022-08-02T07:53:49.907Z,36.40
2022-08-02T07:56:08.416Z,36.50
2022-08-02T07:58:35.127Z,35.90
2022-08-02T08:01:02.094Z,36.70
2022-08-02T08:03:29.160Z,36.80
2022-08-02T08:05:55.995Z,36.60
2022-08-02T08:08:22.738Z,36.80
2022-08-02T08:10:49.536Z,35.90
2022-08-02T08:13:16.647Z,36.20
2022-08-02T08:15:52.360Z,36.60
2022-08-02T08:18:20.799Z,35.90
2022-08-02T08:20:47.530Z,36.90
2022-08-02T08:23:14.273Z,35.70
2022-08-02T08:25:42.074Z,35.80
2022-08-02T08:28:09.321Z,34.90
2022-08-02T08:30:36.241Z,35.00
2022-08-02T08:33:04.353Z,36.30
2022-08-02T08:35:31.142Z,36.80
2022-08-02T08:37:57.870Z,36.10
2022-08-02T08:40:25.445Z,35.90
2022-08-02T08:42:52.778Z,36.30
2022-08-02T08:45:19.491Z,34.30
2022-08-02T08:47:52.341Z,35.30
2022-08-02T08:50:25.989Z,35.00
2022-08-02T08:53:06.538Z,34.50
2022-08-02T08:55:35.998Z,35.10
2022-08-02T08:58:04.721Z,35.10
2022-08-02T09:00:33.490Z,35.00
2022-08-02T09:03:04.103Z,33.70
2022-08-02T09:05:31.317Z,35.30
2022-08-02T09:07:58.040Z,35.60
2022-08-02T09:10:36.871Z,35.20
2022-08-02T09:13:38.189Z,33.90
2022-08-02T09:16:12.706Z,36.30
2022-08-02T09:18:44.543Z,36.70
2022-08-02T09:21:12.134Z,37.30
2022-08-02T09:23:45.479Z,37.70
2022-08-02T09:26:14.388Z,37.80
2022-08-02T09:28:43.248Z,37.30
2022-08-02T09:31:14.638Z,36.30
2022-08-02T09:33:43.090Z,37.80
2022-08-02T09:36:14.890Z,38.60
2022-08-02T09:39:02.559Z,38.60
2022-08-02T09:41:31.148Z,38.90
2022-08-02T09:44:05.132Z,38.70
2022-08-02T09:46:38.108Z,38.20
2022-08-02T09:49:16.997Z,36.40
2022-08-02T09:51:47.085Z,36.20
2022-08-02T09:54:26.417Z,34.60
2022-08-02T09:56:56.348Z,33.70
2022-08-02T09:59:24.993Z,34.20
2022-08-02T10:02:01.229Z,32.40
2022-08-02T10:04:52.584Z,31.80
2022-08-02T10:07:22.419Z,29.70
2022-08-02T10:09:50.741Z,29.90
2022-08-02T10:12:17.714Z,29.30
2022-08-02T10:14:45.822Z,28.70
2022-08-02T10:17:13.221Z,28.80
2022-08-02T10:20:01.731Z,30.00
2022-08-02T10:22:27.321Z,30.10
2022-08-02T10:24:54.045Z,29.60
2022-08-02T10:27:21.441Z,29.90
2022-08-02T10:29:54.702Z,30.00
2022-08-02T10:32:39.008Z,30.70
2022-08-02T10:35:19.421Z,31.10
2022-08-02T10:37:56.084Z,30.80
2022-08-02T10:40:23.338Z,30.30
2022-08-02T10:42:53.430Z,30.00
2022-08-02T10:45:22.381Z,29.70
2022-08-02T10:48:10.218Z,29.90
2022-08-02T10:50:57.266Z,29.40
2022-08-02T10:53:32.505Z,29.50
2022-08-02T10:56:04.763Z,29.30
2022-08-02T10:58:32.850Z,29.10
2022-08-02T11:01:05.824Z,28.80
2022-08-02T11:03:33.516Z,28.30
2022-08-02T11:06:25.653Z,28.20
2022-08-02T11:09:31.820Z,28.80
2022-08-02T11:12:11.842Z,29.60
2022-08-02T11:14:41.965Z,29.80
2022-08-02T11:17:11.819Z,29.50
2022-08-02T11:20:12.658Z,29.60
2022-08-02T11:22:40.282Z,29.90
2022-08-02T11:25:22.316Z,29.00
2022-08-02T11:27:50.540Z,28.80
2022-08-02T11:30:17.492Z,28.20
2022-08-02T11:32:44.335Z,28.30
2022-08-02T11:37:52.380Z,29.00
2022-08-02T11:40:20.223Z,28.90
2022-08-02T11:42:51.257Z,29.20
2022-08-02T11:45:21.323Z,28.90
2022-08-02T11:47:51.122Z,28.40
2022-08-02T11:50:20.680Z,27.70
2022-08-02T11:52:56.885Z,27.80
2022-08-02T11:55:28.820Z,28.30
2022-08-02T11:58:04.484Z,28.10
2022-08-02T12:00:32.372Z,28.00
2022-08-02T12:02:59.365Z,28.20
2022-08-02T12:05:51.306Z,28.10
2022-08-02T12:08:13.738Z,28.40
2022-08-02T12:10:50.513Z,28.40
2022-08-02T12:13:17.311Z,27.90
2022-08-02T12:15:46.746Z,27.60
2022-08-02T12:18:41.698Z,27.50
2022-08-02T12:21:24.229Z,27.10
2022-08-02T12:23:57.071Z,27.10
2022-08-02T12:26:28.776Z,27.10
2022-08-02T12:28:58.090Z,27.60
2022-08-02T12:31:55.916Z,28.30
2022-08-02T12:34:31.484Z,27.90
2022-08-02T12:37:09.821Z,27.50
2022-08-02T12:39:43.934Z,27.30
2022-08-02T12:42:15.456Z,27.60
2022-08-02T12:44:54.591Z,27.70
2022-08-02T12:47:22.080Z,27.90
2022-08-02T12:50:31.087Z,27.60
2022-08-02T12:53:14.009Z,27.20
2022-08-02T12:55:59.438Z,27.00
2022-08-02T12:58:31.298Z,27.10
2022-08-02T13:01:01.955Z,27.40
2022-08-02T13:04:07.395Z,27.60
2022-08-02T13:06:40.730Z,27.50
2022-08-02T13:09:13.058Z,27.90
2022-08-02T13:11:43.517Z,28.10
2022-08-02T13:14:11.765Z,28.20
2022-08-02T13:16:38.595Z,28.00
2022-08-02T13:19:05.741Z,28.00
2022-08-02T13:21:41.469Z,28.20
2022-08-02T13:24:39.201Z,27.90
2022-08-02T13:27:08.209Z,27.50
2022-08-02T13:29:36.992Z,27.20
2022-08-02T13:32:04.059Z,27.40
2022-08-02T13:34:30.841Z,27.60
2022-08-02T13:36:57.579Z,27.60
2022-08-02T13:39:24.311Z,27.60
2022-08-02T13:41:51.476Z,27.20
2022-08-02T13:44:18.243Z,27.00
2022-08-02T13:46:46.127Z,27.10
2022-08-02T13:49:18.884Z,27.40
2022-08-02T13:51:49.972Z,27.50
2022-08-02T13:54:17.123Z,27.30
2022-08-02T13:56:44.206Z,27.00
2022-08-02T13:59:22.013Z,27.10
2022-08-02T14:01:59.635Z,27.30
2022-08-02T14:04:27.420Z,27.20
2022-08-02T14:06:54.391Z,27.20
2022-08-02T14:09:21.446Z,27.10
2022-08-02T14:11:48.669Z,27.30
2022-08-02T14:14:17.406Z,27.50
2022-08-02T14:16:45.579Z,27.00
2022-08-02T14:19:16.700Z,27.10
2022-08-02T14:21:48.627Z,27.30
2022-08-02T14:24:17.051Z,27.10
2022-08-02T14:26:44.742Z,27.00
2022-08-02T14:29:13.477Z,27.00
2022-08-02T14:31:44.243Z,26.90
2022-08-02T14:34:15.252Z,27.00
2022-08-02T14:36:42.064Z,26.90
2022-08-02T14:39:09.145Z,27.00
2022-08-02T14:41:59.943Z,27.20
2022-08-02T14:44:24.222Z,27.40
2022-08-02T14:46:51.859Z,27.40
2022-08-02T14:49:25.807Z,27.50
2022-08-02T14:51:57.470Z,27.50
2022-08-02T14:54:30.636Z,27.40
2022-08-02T14:57:02.361Z,27.30
2022-08-02T14:59:30.050Z,27.50
2022-08-02T15:01:57.819Z,27.60
2022-08-02T15:04:25.122Z,27.60
2022-08-02T15:06:51.974Z,27.60
2022-08-02T15:09:19.503Z,27.60
2022-08-02T15:11:47.371Z,27.40
2022-08-02T15:14:21.992Z,27.60
2022-08-02T15:19:59.242Z,27.30
2022-08-02T15:22:28.865Z,27.60
2022-08-02T15:24:55.937Z,27.70
2022-08-02T15:27:23.246Z,27.80
2022-08-02T15:29:50.113Z,27.90
2022-08-02T15:32:20.880Z,27.60
2022-08-02T15:34:47.792Z,27.80
2022-08-02T15:37:14.601Z,27.90
2022-08-02T15:39:41.380Z,27.80
2022-08-02T15:42:08.474Z,27.80
2022-08-02T15:44:35.337Z,27.80
2022-08-02T15:47:05.595Z,27.90
2022-08-02T15:49:32.381Z,27.80
2022-08-02T15:51:59.168Z,27.70
2022-08-02T15:54:25.882Z,27.60
2022-08-02T15:56:52.650Z,27.60
2022-08-02T15:59:19.431Z,27.40
2022-08-02T16:01:48.078Z,27.40
2022-08-02T16:04:16.013Z,27.30
2022-08-02T16:06:43.662Z,27.30
2022-08-02T16:09:10.632Z,27.30
2022-08-02T16:11:37.772Z,27.40
2022-08-02T16:14:04.756Z,27.30
2022-08-02T16:16:34.892Z,27.20
2022-08-02T16:19:29.946Z,26.90
2022-08-02T16:21:50.635Z,26.90
2022-08-02T16:24:17.707Z,27.00
2022-08-02T16:26:44.428Z,26.90
2022-08-02T16:29:11.458Z,27.00
2022-08-02T16:31:42.475Z,27.00
2022-08-02T16:34:10.026Z,27.00
2022-08-02T16:36:37.657Z,26.90
2022-08-02T16:39:04.803Z,26.70
2022-08-02T16:41:50.862Z,26.80
2022-08-02T16:44:18.399Z,26.70
2022-08-02T16:46:53.871Z,26.80
2022-08-02T16:50:05.125Z,26.80
2022-08-02T16:52:07.395Z,26.80
2022-08-02T16:54:37.285Z,26.90
2022-08-02T16:57:05.022Z,26.90
2022-08-02T16:59:42.003Z,26.80
2022-08-02T17:02:11.475Z,26.70
2022-08-02T17:04:42.864Z,26.60
2022-08-02T17:07:11.195Z,26.50
2022-08-02T17:10:04.027Z,26.50
2022-08-02T17:12:34.343Z,26.40
2022-08-02T17:15:09.037Z,26.30
2022-08-02T17:17:48.062Z,26.20
2022-08-02T17:20:15.297Z,26.10
2022-08-02T17:22:44.157Z,25.90
2022-08-02T17:25:13.430Z,25.90
2022-08-02T17:27:43.179Z,25.80
2022-08-02T17:30:11.324Z,25.70
2022-08-02T17:32:38.484Z,25.70
2022-08-02T17:35:10.056Z,25.70
2022-08-02T17:37:41.580Z,25.60
2022-08-02T17:40:09.617Z,25.30
2022-08-02T17:42:36.583Z,25.20
2022-08-02T17:45:07.038Z,25.20
2022-08-02T17:48:04.373Z,25.10
2022-08-02T17:50:30.658Z,25.00
2022-08-02T17:52:57.710Z,25.00
2022-08-02T17:55:24.579Z,25.00
2022-08-02T17:57:58.206Z,24.90
2022-08-02T18:00:34.106Z,24.80
2022-08-02T18:03:02.143Z,24.70
2022-08-02T18:05:39.190Z,24.70
2022-08-02T18:08:08.693Z,24.60
2022-08-02T18:10:35.814Z,24.50
2022-08-02T18:13:03.750Z,24.50
2022-08-02T18:15:32.601Z,24.40
2022-08-02T18:18:00.477Z,24.30
2022-08-02T18:20:27.214Z,24.30
2022-08-02T18:22:58.485Z,24.10
2022-08-02T18:25:37.527Z,24.10
2022-08-02T18:28:11.154Z,24.00
2022-08-02T18:30:37.977Z,23.90
2022-08-02T18:33:58.839Z,23.80
2022-08-02T18:35:55.286Z,23.70
2022-08-02T18:38:23.292Z,23.60
2022-08-02T18:40:50.765Z,23.40
2022-08-02T18:43:18.782Z,23.30
2022-08-02T18:46:06.128Z,23.30
2022-08-02T18:48:39.592Z,23.10
2022-08-02T18:51:11.575Z,23.00
2022-08-02T18:53:41.654Z,22.90
2022-08-02T18:56:19.777Z,22.80
2022-08-02T18:58:55.718Z,22.70
2022-08-02T19:01:32.108Z,22.60
2022-08-02T19:04:01.151Z,22.40
2022-08-02T19:06:29.114Z,22.40
2022-08-02T19:08:59.772Z,22.40
2022-08-02T19:11:35.070Z,22.30
2022-08-02T19:14:02.365Z,22.20
2022-08-02T19:16:37.454Z,22.20
2022-08-02T19:19:05.801Z,22.00
2022-08-02T19:22:16.318Z,22.00
2022-08-02T19:24:19.711Z,21.90
2022-08-02T19:26:52.103Z,21.90
2022-08-02T19:29:42.083Z,21.90
2022-08-02T19:32:39.214Z,21.80
2022-08-02T19:34:55.807Z,21.70
2022-08-02T19:37:22.680Z,21.60
2022-08-02T19:39:50.585Z,21.50
2022-08-02T19:42:18.796Z,21.40
2022-08-02T19:44:46.332Z,21.40
2022-08-02T19:47:19.413Z,21.30
2022-08-02T19:49:49.009Z,21.20
2022-08-02T19:52:21.819Z,21.10
2022-08-02T19:54:55.401Z,21.20
2022-08-02T19:57:22.959Z,21.10
2022-08-02T19:59:52.367Z,21.00
2022-08-02T20:02:19.547Z,21.20
2022-08-02T20:04:50.224Z,21.00
2022-08-02T20:07:54.356Z,21.00
2022-08-02T20:10:11.293Z,20.90
2022-08-02T20:12:42.296Z,20.70
2022-08-02T20:15:14.992Z,20.70
2022-08-02T20:17:47.743Z,20.60
2022-08-02T20:20:16.874Z,20.50
2022-08-02T20:23:32.055Z,20.40
2022-08-02T20:25:54.038Z,20.40
2022-08-02T20:28:22.042Z,20.30
2022-08-02T20:30:49.427Z,20.20
2022-08-02T20:33:21.824Z,20.20
2022-08-02T20:35:49.859Z,20.20
2022-08-02T20:38:16.603Z,20.20
2022-08-02T20:40:43.879Z,20.10
2022-08-02T20:43:10.736Z,20.00
2022-08-02T20:45:37.502Z,19.90
2022-08-02T20:48:05.085Z,19.90
2022-08-02T20:50:49.204Z,19.80
2022-08-02T20:56:06.138Z,19.70
2022-08-02T20:58:33.786Z,19.60
2022-08-02T21:01:00.514Z,19.50
2022-08-02T21:03:38.911Z,19.50
2022-08-02T21:06:11.337Z,19.40
2022-08-02T21:08:42.033Z,19.40
2022-08-02T21:11:14.119Z,19.40
2022-08-02T21:13:47.142Z,19.30
2022-08-02T21:16:28.099Z,19.30
2022-08-02T21:18:59.722Z,19.20
2022-08-02T21:21:27.394Z,19.20
2022-08-02T21:23:55.113Z,19.10
2022-08-02T21:26:28.127Z,19.10
2022-08-02T21:28:58.269Z,19.10
2022-08-02T21:31:29.943Z,19.10
2022-08-02T21:34:00.374Z,19.00
2022-08-02T21:36:30.217Z,19.00
2022-08-02T21:38:58.366Z,18.90
2022-08-02T21:41:38.562Z,18.90
2022-08-02T21:44:07.270Z,18.80
2022-08-02T21:46:34.670Z,18.80
2022-08-02T21:49:02.128Z,18.70
2022-08-02T21:51:29.125Z,18.70
2022-08-02T21:54:17.877Z,18.60
2022-08-02T21:56:52.316Z,18.60
2022-08-02T21:59:37.909Z,18.50
2022-08-02T22:02:05.264Z,18.50
2022-08-02T22:04:36.284Z,18.50
2022-08-02T22:07:03.274Z,18.50
2022-08-02T22:09:43.312Z,18.50
2022-08-02T22:12:17.792Z,18.40
2022-08-02T22:14:54.308Z,18.30
2022-08-02T22:17:49.951Z,18.30
2022-08-02T22:20:20.037Z,18.30
2022-08-02T22:22:52.626Z,18.20
2022-08-02T22:25:26.844Z,18.10
2022-08-02T22:28:38.921Z,18.40
2022-08-02T22:30:58.219Z,18.50
2022-08-02T22:33:59.862Z,18.30
2022-08-02T22:36:28.509Z,18.10
2022-08-02T22:38:55.688Z,18.10
2022-08-02T22:41:22.547Z,18.00
2022-08-02T22:43:49.842Z,17.90
2022-08-02T22:46:16.932Z,17.90
2022-08-02T22:48:45.464Z,18.10
2022-08-02T22:51:13.567Z,18.10
2022-08-02T22:53:41.790Z,17.90
2022-08-02T22:56:09.259Z,17.80
2022-08-02T22:59:05.573Z,17.80
2022-08-02T22:59:08.207Z,19.80
2022-08-02T23:01:22.760Z,17.70
2022-08-02T23:03:49.529Z,17.70
2022-08-02T23:06:19.108Z,17.60
2022-08-02T23:08:49.768Z,17.70
2022-08-02T23:11:16.644Z,17.70
2022-08-02T23:13:43.386Z,17.70
2022-08-02T23:16:28.612Z,17.90
2022-08-02T23:19:14.238Z,17.70
2022-08-02T23:22:01.877Z,17.70
2022-08-02T23:24:28.443Z,17.70
2022-08-02T23:26:55.157Z,17.70
2022-08-02T23:29:22.573Z,17.90
2022-08-02T23:31:49.320Z,17.70
2022-08-02T23:34:16.289Z,17.60
2022-08-02T23:36:43.013Z,17.80
2022-08-02T23:39:09.755Z,17.90
2022-08-02T23:41:36.484Z,17.70
2022-08-02T23:44:13.416Z,17.90
2022-08-02T23:46:45.424Z,17.80
2022-08-02T23:49:12.980Z,17.80
2022-08-02T23:51:40.066Z,18.00
2022-08-02T23:54:06.885Z,17.60
2022-08-02T23:56:33.811Z,17.50
2022-08-02T23:59:00.560Z,17.70
